sensor_id;sensor_type;location;lat;lon;timestamp;P1;durP1;ratioP1;P2;durP2;ratioP2
33190;SDS011;19554;42.652;23.364;2023-07-28T00:01:33;3.92;;;2.50;;
33190;SDS011;19554;42.652;23.364;2023-07-28T00:03:59;2.75;;;2.55;;
33190;SDS011;19554;42.652;23.364;2023-07-28T00:06:24;6.00;;;2.53;;
33190;SDS011;19554;42.652;23.364;2023-07-28T00:08:49;3.65;;;2.80;;
33190;SDS011;19554;42.652;23.364;2023-07-28T00:11:15;4.88;;;2.65;;
33190;SDS011;19554;42.652;23.364;2023-07-28T00:13:41;3.45;;;2.60;;
33190;SDS011;19554;42.652;23.364;2023-07-28T00:16:08;4.80;;;2.50;;
33190;SDS011;19554;42.652;23.364;2023-07-28T00:18:34;2.88;;;2.58;;
33190;SDS011;19554;42.652;23.364;2023-07-28T00:20:59;6.35;;;3.35;;
33190;SDS011;19554;42.652;23.364;2023-07-28T00:23:25;7.07;;;2.80;;
33190;SDS011;19554;42.652;23.364;2023-07-28T00:25:50;5.75;;;3.47;;
33190;SDS011;19554;42.652;23.364;2023-07-28T00:28:16;5.68;;;2.70;;
33190;SDS011;19554;42.652;23.364;2023-07-28T00:30:42;3.17;;;2.55;;
33190;SDS011;19554;42.652;23.364;2023-07-28T00:33:07;2.78;;;2.58;;
33190;SDS011;19554;42.652;23.364;2023-07-28T00:35:32;3.60;;;2.78;;
33190;SDS011;19554;42.652;23.364;2023-07-28T00:37:58;2.95;;;2.72;;
33190;SDS011;19554;42.652;23.364;2023-07-28T00:40:23;3.22;;;2.90;;
33190;SDS011;19554;42.652;23.364;2023-07-28T00:42:49;4.47;;;2.63;;
33190;SDS011;19554;42.652;23.364;2023-07-28T00:45:14;5.72;;;2.72;;
33190;SDS011;19554;42.652;23.364;2023-07-28T00:47:40;2.70;;;2.22;;
33190;SDS011;19554;42.652;23.364;2023-07-28T00:50:06;4.97;;;2.40;;
33190;SDS011;19554;42.652;23.364;2023-07-28T00:52:34;3.53;;;2.65;;
33190;SDS011;19554;42.652;23.364;2023-07-28T00:55:00;2.70;;;2.45;;
33190;SDS011;19554;42.652;23.364;2023-07-28T00:57:25;2.65;;;2.45;;
33190;SDS011;19554;42.652;23.364;2023-07-28T00:59:51;2.58;;;2.38;;
33190;SDS011;19554;42.652;23.364;2023-07-28T01:02:16;5.65;;;2.22;;
33190;SDS011;19554;42.652;23.364;2023-07-28T01:04:42;3.05;;;2.58;;
33190;SDS011;19554;42.652;23.364;2023-07-28T01:09:57;3.55;;;2.28;;
33190;SDS011;19554;42.652;23.364;2023-07-28T01:12:35;2.83;;;2.30;;
33190;SDS011;19554;42.652;23.364;2023-07-28T01:15:00;5.97;;;2.88;;
33190;SDS011;19554;42.652;23.364;2023-07-28T01:17:26;2.95;;;2.63;;
33190;SDS011;19554;42.652;23.364;2023-07-28T01:19:52;4.97;;;2.38;;
33190;SDS011;19554;42.652;23.364;2023-07-28T01:28:03;2.75;;;2.50;;
33190;SDS011;19554;42.652;23.364;2023-07-28T01:30:30;5.65;;;2.60;;
33190;SDS011;19554;42.652;23.364;2023-07-28T01:32:56;2.60;;;2.40;;
33190;SDS011;19554;42.652;23.364;2023-07-28T01:35:23;2.80;;;2.35;;
33190;SDS011;19554;42.652;23.364;2023-07-28T01:37:48;3.33;;;2.58;;
33190;SDS011;19554;42.652;23.364;2023-07-28T01:40:16;2.80;;;2.60;;
33190;SDS011;19554;42.652;23.364;2023-07-28T01:42:42;7.07;;;3.05;;
33190;SDS011;19554;42.652;23.364;2023-07-28T01:45:08;5.90;;;2.70;;
33190;SDS011;19554;42.652;23.364;2023-07-28T01:47:34;9.18;;;2.60;;
33190;SDS011;19554;42.652;23.364;2023-07-28T01:49:59;2.35;;;2.15;;
33190;SDS011;19554;42.652;23.364;2023-07-28T01:52:24;2.83;;;2.40;;
33190;SDS011;19554;42.652;23.364;2023-07-28T01:54:50;5.20;;;2.30;;
33190;SDS011;19554;42.652;23.364;2023-07-28T01:57:15;4.28;;;2.33;;
33190;SDS011;19554;42.652;23.364;2023-07-28T01:59:41;3.78;;;1.92;;
33190;SDS011;19554;42.652;23.364;2023-07-28T02:02:06;4.05;;;2.45;;
33190;SDS011;19554;42.652;23.364;2023-07-28T02:04:31;2.60;;;2.40;;
33190;SDS011;19554;42.652;23.364;2023-07-28T02:06:57;2.30;;;2.10;;
33190;SDS011;19554;42.652;23.364;2023-07-28T02:09:22;2.15;;;1.95;;
33190;SDS011;19554;42.652;23.364;2023-07-28T02:11:47;2.95;;;2.20;;
33190;SDS011;19554;42.652;23.364;2023-07-28T02:14:13;3.63;;;2.45;;
33190;SDS011;19554;42.652;23.364;2023-07-28T02:16:38;2.20;;;2.03;;
33190;SDS011;19554;42.652;23.364;2023-07-28T02:19:03;3.20;;;2.17;;
33190;SDS011;19554;42.652;23.364;2023-07-28T02:21:30;3.25;;;2.10;;
33190;SDS011;19554;42.652;23.364;2023-07-28T02:23:55;3.65;;;2.63;;
33190;SDS011;19554;42.652;23.364;2023-07-28T02:26:21;4.47;;;2.15;;
33190;SDS011;19554;42.652;23.364;2023-07-28T02:28:46;2.97;;;2.15;;
33190;SDS011;19554;42.652;23.364;2023-07-28T02:31:11;2.38;;;2.17;;
33190;SDS011;19554;42.652;23.364;2023-07-28T02:33:37;3.95;;;2.63;;
33190;SDS011;19554;42.652;23.364;2023-07-28T02:36:05;3.55;;;2.20;;
33190;SDS011;19554;42.652;23.364;2023-07-28T02:38:31;3.08;;;2.25;;
33190;SDS011;19554;42.652;23.364;2023-07-28T02:40:56;2.70;;;2.50;;
33190;SDS011;19554;42.652;23.364;2023-07-28T02:43:21;2.92;;;2.33;;
33190;SDS011;19554;42.652;23.364;2023-07-28T02:45:48;5.75;;;2.20;;
33190;SDS011;19554;42.652;23.364;2023-07-28T02:48:18;3.20;;;2.38;;
33190;SDS011;19554;42.652;23.364;2023-07-28T02:50:46;2.85;;;2.35;;
33190;SDS011;19554;42.652;23.364;2023-07-28T02:53:12;3.97;;;2.60;;
33190;SDS011;19554;42.652;23.364;2023-07-28T02:55:42;5.25;;;2.65;;
33190;SDS011;19554;42.652;23.364;2023-07-28T02:58:08;3.23;;;2.47;;
33190;SDS011;19554;42.652;23.364;2023-07-28T03:00:36;2.92;;;2.47;;
33190;SDS011;19554;42.652;23.364;2023-07-28T03:03:03;3.50;;;2.60;;
33190;SDS011;19554;42.652;23.364;2023-07-28T03:05:30;3.88;;;2.95;;
33190;SDS011;19554;42.652;23.364;2023-07-28T03:07:56;4.10;;;2.95;;
33190;SDS011;19554;42.652;23.364;2023-07-28T03:10:21;3.75;;;2.90;;
33190;SDS011;19554;42.652;23.364;2023-07-28T03:12:47;6.40;;;2.17;;
33190;SDS011;19554;42.652;23.364;2023-07-28T03:15:12;2.85;;;2.65;;
33190;SDS011;19554;42.652;23.364;2023-07-28T03:17:37;4.07;;;2.90;;
33190;SDS011;19554;42.652;23.364;2023-07-28T03:20:03;3.45;;;3.13;;
33190;SDS011;19554;42.652;23.364;2023-07-28T03:22:29;3.25;;;2.95;;
33190;SDS011;19554;42.652;23.364;2023-07-28T03:24:55;3.72;;;2.80;;
33190;SDS011;19554;42.652;23.364;2023-07-28T03:27:21;3.55;;;3.10;;
33190;SDS011;19554;42.652;23.364;2023-07-28T03:29:46;7.95;;;2.83;;
33190;SDS011;19554;42.652;23.364;2023-07-28T03:32:12;3.80;;;2.70;;
33190;SDS011;19554;42.652;23.364;2023-07-28T03:34:37;6.50;;;3.40;;
33190;SDS011;19554;42.652;23.364;2023-07-28T03:37:03;6.78;;;2.78;;
33190;SDS011;19554;42.652;23.364;2023-07-28T03:39:29;4.47;;;3.10;;
33190;SDS011;19554;42.652;23.364;2023-07-28T03:41:55;4.53;;;2.78;;
33190;SDS011;19554;42.652;23.364;2023-07-28T03:44:21;4.65;;;2.78;;
33190;SDS011;19554;42.652;23.364;2023-07-28T03:46:46;9.70;;;2.85;;
33190;SDS011;19554;42.652;23.364;2023-07-28T03:49:12;6.13;;;2.50;;
33190;SDS011;19554;42.652;23.364;2023-07-28T03:51:38;8.75;;;3.10;;
33190;SDS011;19554;42.652;23.364;2023-07-28T03:54:03;5.78;;;3.35;;
33190;SDS011;19554;42.652;23.364;2023-07-28T03:56:28;3.53;;;2.70;;
33190;SDS011;19554;42.652;23.364;2023-07-28T03:58:54;4.30;;;2.90;;
33190;SDS011;19554;42.652;23.364;2023-07-28T04:01:19;6.78;;;2.85;;
33190;SDS011;19554;42.652;23.364;2023-07-28T04:03:46;6.50;;;3.20;;
33190;SDS011;19554;42.652;23.364;2023-07-28T04:06:12;3.30;;;2.78;;
33190;SDS011;19554;42.652;23.364;2023-07-28T04:08:38;6.13;;;3.03;;
33190;SDS011;19554;42.652;23.364;2023-07-28T04:11:04;7.18;;;2.78;;
33190;SDS011;19554;42.652;23.364;2023-07-28T04:13:29;6.63;;;3.25;;
33190;SDS011;19554;42.652;23.364;2023-07-28T04:15:54;5.18;;;3.28;;
33190;SDS011;19554;42.652;23.364;2023-07-28T04:18:20;5.70;;;3.60;;
33190;SDS011;19554;42.652;23.364;2023-07-28T04:20:45;4.97;;;3.40;;
33190;SDS011;19554;42.652;23.364;2023-07-28T04:23:11;6.10;;;3.25;;
33190;SDS011;19554;42.652;23.364;2023-07-28T04:25:37;6.38;;;3.00;;
33190;SDS011;19554;42.652;23.364;2023-07-28T04:28:02;7.75;;;3.45;;
33190;SDS011;19554;42.652;23.364;2023-07-28T04:30:28;5.03;;;2.72;;
33190;SDS011;19554;42.652;23.364;2023-07-28T04:32:53;12.18;;;3.13;;
33190;SDS011;19554;42.652;23.364;2023-07-28T04:35:18;9.55;;;2.75;;
33190;SDS011;19554;42.652;23.364;2023-07-28T04:37:44;15.68;;;3.42;;
33190;SDS011;19554;42.652;23.364;2023-07-28T04:40:09;5.30;;;2.42;;
33190;SDS011;19554;42.652;23.364;2023-07-28T04:42:35;7.80;;;3.42;;
33190;SDS011;19554;42.652;23.364;2023-07-28T04:45:01;6.30;;;2.60;;
33190;SDS011;19554;42.652;23.364;2023-07-28T04:47:27;12.85;;;3.35;;
33190;SDS011;19554;42.652;23.364;2023-07-28T04:49:52;7.55;;;3.80;;
33190;SDS011;19554;42.652;23.364;2023-07-28T04:52:18;3.97;;;3.22;;
33190;SDS011;19554;42.652;23.364;2023-07-28T04:54:43;7.15;;;3.33;;
33190;SDS011;19554;42.652;23.364;2023-07-28T04:57:09;5.20;;;3.25;;
33190;SDS011;19554;42.652;23.364;2023-07-28T04:59:34;6.93;;;3.70;;
33190;SDS011;19554;42.652;23.364;2023-07-28T05:01:59;6.18;;;3.50;;
33190;SDS011;19554;42.652;23.364;2023-07-28T05:04:25;8.15;;;3.67;;
33190;SDS011;19554;42.652;23.364;2023-07-28T05:06:50;5.53;;;3.78;;
33190;SDS011;19554;42.652;23.364;2023-07-28T05:09:16;5.57;;;3.80;;
33190;SDS011;19554;42.652;23.364;2023-07-28T05:11:41;7.25;;;3.63;;
33190;SDS011;19554;42.652;23.364;2023-07-28T05:14:07;8.50;;;3.70;;
33190;SDS011;19554;42.652;23.364;2023-07-28T05:16:33;6.93;;;4.10;;
33190;SDS011;19554;42.652;23.364;2023-07-28T05:18:59;6.13;;;4.00;;
33190;SDS011;19554;42.652;23.364;2023-07-28T05:21:25;5.65;;;3.85;;
33190;SDS011;19554;42.652;23.364;2023-07-28T05:23:50;6.75;;;3.90;;
33190;SDS011;19554;42.652;23.364;2023-07-28T05:26:16;9.50;;;4.43;;
33190;SDS011;19554;42.652;23.364;2023-07-28T05:28:42;7.45;;;4.50;;
33190;SDS011;19554;42.652;23.364;2023-07-28T05:31:07;12.18;;;4.50;;
33190;SDS011;19554;42.652;23.364;2023-07-28T05:33:33;7.85;;;4.65;;
33190;SDS011;19554;42.652;23.364;2023-07-28T05:36:02;6.38;;;4.90;;
33190;SDS011;19554;42.652;23.364;2023-07-28T05:38:28;10.20;;;4.80;;
33190;SDS011;19554;42.652;23.364;2023-07-28T05:41:00;9.00;;;5.32;;
33190;SDS011;19554;42.652;23.364;2023-07-28T05:43:29;7.10;;;4.50;;
33190;SDS011;19554;42.652;23.364;2023-07-28T05:45:59;10.85;;;5.63;;
33190;SDS011;19554;42.652;23.364;2023-07-28T05:48:24;9.15;;;5.70;;
33190;SDS011;19554;42.652;23.364;2023-07-28T05:50:50;12.15;;;6.10;;
33190;SDS011;19554;42.652;23.364;2023-07-28T05:53:20;6.88;;;4.80;;
33190;SDS011;19554;42.652;23.364;2023-07-28T05:55:48;8.02;;;4.40;;
33190;SDS011;19554;42.652;23.364;2023-07-28T05:58:14;8.15;;;4.13;;
33190;SDS011;19554;42.652;23.364;2023-07-28T06:00:39;7.53;;;3.88;;
33190;SDS011;19554;42.652;23.364;2023-07-28T06:03:06;9.15;;;4.57;;
33190;SDS011;19554;42.652;23.364;2023-07-28T06:05:32;10.02;;;4.88;;
33190;SDS011;19554;42.652;23.364;2023-07-28T06:07:57;6.95;;;4.63;;
33190;SDS011;19554;42.652;23.364;2023-07-28T06:10:23;8.85;;;4.55;;
33190;SDS011;19554;42.652;23.364;2023-07-28T06:12:48;6.05;;;4.28;;
33190;SDS011;19554;42.652;23.364;2023-07-28T06:15:13;8.05;;;4.18;;
33190;SDS011;19554;42.652;23.364;2023-07-28T06:17:39;10.38;;;4.60;;
33190;SDS011;19554;42.652;23.364;2023-07-28T06:20:04;8.18;;;4.63;;
33190;SDS011;19554;42.652;23.364;2023-07-28T06:22:31;9.23;;;4.75;;
33190;SDS011;19554;42.652;23.364;2023-07-28T06:24:56;6.03;;;3.75;;
33190;SDS011;19554;42.652;23.364;2023-07-28T06:27:21;3.95;;;3.53;;
33190;SDS011;19554;42.652;23.364;2023-07-28T06:29:47;9.15;;;4.80;;
33190;SDS011;19554;42.652;23.364;2023-07-28T06:32:12;7.55;;;3.72;;
33190;SDS011;19554;42.652;23.364;2023-07-28T06:34:37;4.88;;;3.78;;
33190;SDS011;19554;42.652;23.364;2023-07-28T06:37:03;6.57;;;3.38;;
33190;SDS011;19554;42.652;23.364;2023-07-28T06:39:28;8.38;;;3.58;;
33190;SDS011;19554;42.652;23.364;2023-07-28T06:41:55;5.22;;;3.75;;
33190;SDS011;19554;42.652;23.364;2023-07-28T06:44:20;6.78;;;3.20;;
33190;SDS011;19554;42.652;23.364;2023-07-28T06:46:46;6.82;;;3.83;;
33190;SDS011;19554;42.652;23.364;2023-07-28T06:49:12;5.88;;;3.80;;
33190;SDS011;19554;42.652;23.364;2023-07-28T06:51:38;6.53;;;3.00;;
33190;SDS011;19554;42.652;23.364;2023-07-28T06:54:03;6.97;;;3.42;;
33190;SDS011;19554;42.652;23.364;2023-07-28T06:56:29;8.82;;;3.05;;
33190;SDS011;19554;42.652;23.364;2023-07-28T06:58:54;6.07;;;4.20;;
33190;SDS011;19554;42.652;23.364;2023-07-28T07:01:19;11.40;;;3.70;;
33190;SDS011;19554;42.652;23.364;2023-07-28T07:03:47;6.95;;;3.25;;
33190;SDS011;19554;42.652;23.364;2023-07-28T07:06:12;10.10;;;3.80;;
33190;SDS011;19554;42.652;23.364;2023-07-28T07:08:37;8.95;;;3.70;;
33190;SDS011;19554;42.652;23.364;2023-07-28T07:11:03;9.15;;;3.17;;
33190;SDS011;19554;42.652;23.364;2023-07-28T07:13:30;8.07;;;4.10;;
33190;SDS011;19554;42.652;23.364;2023-07-28T07:15:56;10.57;;;5.72;;
33190;SDS011;19554;42.652;23.364;2023-07-28T07:18:21;10.43;;;5.00;;
33190;SDS011;19554;42.652;23.364;2023-07-28T07:20:47;9.45;;;5.68;;
33190;SDS011;19554;42.652;23.364;2023-07-28T07:23:12;10.85;;;5.32;;
33190;SDS011;19554;42.652;23.364;2023-07-28T07:25:37;8.13;;;4.53;;
33190;SDS011;19554;42.652;23.364;2023-07-28T07:28:03;7.10;;;3.83;;
33190;SDS011;19554;42.652;23.364;2023-07-28T07:30:28;5.35;;;4.07;;
33190;SDS011;19554;42.652;23.364;2023-07-28T07:32:58;11.90;;;4.63;;
33190;SDS011;19554;42.652;23.364;2023-07-28T07:35:23;4.90;;;3.85;;
33190;SDS011;19554;42.652;23.364;2023-07-28T07:37:48;6.45;;;3.83;;
33190;SDS011;19554;42.652;23.364;2023-07-28T07:40:14;6.50;;;4.05;;
33190;SDS011;19554;42.652;23.364;2023-07-28T07:42:41;4.88;;;3.80;;
33190;SDS011;19554;42.652;23.364;2023-07-28T07:45:17;9.07;;;4.50;;
33190;SDS011;19554;42.652;23.364;2023-07-28T07:47:42;7.00;;;3.67;;
33190;SDS011;19554;42.652;23.364;2023-07-28T07:50:08;5.35;;;3.78;;
33190;SDS011;19554;42.652;23.364;2023-07-28T07:52:35;6.55;;;4.05;;
33190;SDS011;19554;42.652;23.364;2023-07-28T07:55:01;5.43;;;3.63;;
33190;SDS011;19554;42.652;23.364;2023-07-28T07:57:27;4.32;;;3.38;;
33190;SDS011;19554;42.652;23.364;2023-07-28T07:59:53;6.53;;;3.40;;
33190;SDS011;19554;42.652;23.364;2023-07-28T08:02:18;7.72;;;3.90;;
33190;SDS011;19554;42.652;23.364;2023-07-28T08:04:44;5.03;;;3.13;;
33190;SDS011;19554;42.652;23.364;2023-07-28T08:07:09;5.85;;;3.53;;
33190;SDS011;19554;42.652;23.364;2023-07-28T08:09:34;10.98;;;4.07;;
33190;SDS011;19554;42.652;23.364;2023-07-28T08:12:00;9.13;;;3.92;;
33190;SDS011;19554;42.652;23.364;2023-07-28T08:14:25;6.80;;;3.90;;
33190;SDS011;19554;42.652;23.364;2023-07-28T08:16:51;6.43;;;3.42;;
33190;SDS011;19554;42.652;23.364;2023-07-28T08:19:16;5.88;;;3.30;;
33190;SDS011;19554;42.652;23.364;2023-07-28T08:21:42;7.22;;;3.50;;
33190;SDS011;19554;42.652;23.364;2023-07-28T08:24:08;7.88;;;3.50;;
33190;SDS011;19554;42.652;23.364;2023-07-28T08:26:33;7.05;;;3.50;;
33190;SDS011;19554;42.652;23.364;2023-07-28T08:28:59;6.82;;;3.13;;
33190;SDS011;19554;42.652;23.364;2023-07-28T08:31:24;9.07;;;3.65;;
33190;SDS011;19554;42.652;23.364;2023-07-28T08:33:50;7.80;;;3.60;;
33190;SDS011;19554;42.652;23.364;2023-07-28T08:36:15;5.25;;;3.50;;
33190;SDS011;19554;42.652;23.364;2023-07-28T08:38:41;8.00;;;3.30;;
33190;SDS011;19554;42.652;23.364;2023-07-28T08:41:06;5.20;;;3.45;;
33190;SDS011;19554;42.652;23.364;2023-07-28T08:43:31;6.65;;;3.35;;
33190;SDS011;19554;42.652;23.364;2023-07-28T08:45:57;6.88;;;3.40;;
33190;SDS011;19554;42.652;23.364;2023-07-28T08:48:23;7.05;;;3.10;;
33190;SDS011;19554;42.652;23.364;2023-07-28T08:50:48;4.10;;;2.85;;
33190;SDS011;19554;42.652;23.364;2023-07-28T08:53:14;4.20;;;3.17;;
33190;SDS011;19554;42.652;23.364;2023-07-28T08:55:41;3.92;;;3.13;;
33190;SDS011;19554;42.652;23.364;2023-07-28T08:58:20;3.67;;;2.80;;
33190;SDS011;19554;42.652;23.364;2023-07-28T09:00:47;7.03;;;3.10;;
33190;SDS011;19554;42.652;23.364;2023-07-28T09:03:19;5.50;;;3.45;;
33190;SDS011;19554;42.652;23.364;2023-07-28T09:05:46;8.43;;;3.53;;
33190;SDS011;19554;42.652;23.364;2023-07-28T09:08:12;11.60;;;3.25;;
33190;SDS011;19554;42.652;23.364;2023-07-28T09:13:10;5.85;;;3.00;;
33190;SDS011;19554;42.652;23.364;2023-07-28T09:15:37;5.40;;;3.13;;
33190;SDS011;19554;42.652;23.364;2023-07-28T09:18:03;4.18;;;3.20;;
33190;SDS011;19554;42.652;23.364;2023-07-28T09:20:35;8.88;;;3.20;;
33190;SDS011;19554;42.652;23.364;2023-07-28T09:23:04;3.85;;;3.10;;
33190;SDS011;19554;42.652;23.364;2023-07-28T09:25:30;4.03;;;3.05;;
33190;SDS011;19554;42.652;23.364;2023-07-28T09:27:56;4.57;;;3.33;;
33190;SDS011;19554;42.652;23.364;2023-07-28T09:30:23;6.65;;;3.35;;
33190;SDS011;19554;42.652;23.364;2023-07-28T09:32:53;6.32;;;3.13;;
33190;SDS011;19554;42.652;23.364;2023-07-28T09:35:21;8.57;;;3.58;;
33190;SDS011;19554;42.652;23.364;2023-07-28T09:37:49;4.03;;;2.72;;
33190;SDS011;19554;42.652;23.364;2023-07-28T09:40:20;4.38;;;3.10;;
33190;SDS011;19554;42.652;23.364;2023-07-28T09:42:47;3.50;;;2.60;;
33190;SDS011;19554;42.652;23.364;2023-07-28T09:45:19;4.35;;;3.05;;
33190;SDS011;19554;42.652;23.364;2023-07-28T09:47:47;10.88;;;3.97;;
33190;SDS011;19554;42.652;23.364;2023-07-28T09:50:18;3.42;;;2.85;;
33190;SDS011;19554;42.652;23.364;2023-07-28T09:52:46;7.80;;;3.67;;
33190;SDS011;19554;42.652;23.364;2023-07-28T09:55:17;8.85;;;3.30;;
33190;SDS011;19554;42.652;23.364;2023-07-28T09:57:48;3.83;;;2.80;;
33190;SDS011;19554;42.652;23.364;2023-07-28T10:00:16;5.13;;;3.15;;
33190;SDS011;19554;42.652;23.364;2023-07-28T10:02:44;3.35;;;2.80;;
33190;SDS011;19554;42.652;23.364;2023-07-28T10:05:10;5.13;;;3.25;;
33190;SDS011;19554;42.652;23.364;2023-07-28T10:07:37;6.70;;;3.33;;
33190;SDS011;19554;42.652;23.364;2023-07-28T10:10:04;4.35;;;2.88;;
33190;SDS011;19554;42.652;23.364;2023-07-28T10:12:39;10.48;;;3.40;;
33190;SDS011;19554;42.652;23.364;2023-07-28T10:15:12;3.83;;;2.72;;
33190;SDS011;19554;42.652;23.364;2023-07-28T10:17:41;5.50;;;3.03;;
33190;SDS011;19554;42.652;23.364;2023-07-28T10:22:53;5.97;;;3.20;;
33190;SDS011;19554;42.652;23.364;2023-07-28T10:25:24;7.28;;;2.92;;
33190;SDS011;19554;42.652;23.364;2023-07-28T10:27:50;3.80;;;2.90;;
33190;SDS011;19554;42.652;23.364;2023-07-28T10:30:17;7.10;;;2.97;;
33190;SDS011;19554;42.652;23.364;2023-07-28T10:35:21;6.88;;;2.97;;
33190;SDS011;19554;42.652;23.364;2023-07-28T10:37:51;3.58;;;2.80;;
33190;SDS011;19554;42.652;23.364;2023-07-28T10:42:47;6.38;;;3.08;;
33190;SDS011;19554;42.652;23.364;2023-07-28T10:45:13;9.05;;;3.17;;
33190;SDS011;19554;42.652;23.364;2023-07-28T10:47:39;4.75;;;2.63;;
33190;SDS011;19554;42.652;23.364;2023-07-28T10:50:08;4.35;;;2.67;;
33190;SDS011;19554;42.652;23.364;2023-07-28T10:52:34;7.13;;;2.70;;
33190;SDS011;19554;42.652;23.364;2023-07-28T10:54:59;8.80;;;3.20;;
33190;SDS011;19554;42.652;23.364;2023-07-28T10:57:25;9.10;;;3.28;;
33190;SDS011;19554;42.652;23.364;2023-07-28T10:59:53;7.07;;;3.25;;
33190;SDS011;19554;42.652;23.364;2023-07-28T11:02:19;6.78;;;3.13;;
33190;SDS011;19554;42.652;23.364;2023-07-28T11:04:47;4.13;;;3.10;;
33190;SDS011;19554;42.652;23.364;2023-07-28T11:07:14;6.95;;;3.40;;
33190;SDS011;19554;42.652;23.364;2023-07-28T11:09:39;5.43;;;3.00;;
33190;SDS011;19554;42.652;23.364;2023-07-28T11:12:08;6.60;;;2.95;;
33190;SDS011;19554;42.652;23.364;2023-07-28T11:14:34;9.48;;;3.63;;
33190;SDS011;19554;42.652;23.364;2023-07-28T11:16:59;5.07;;;2.88;;
33190;SDS011;19554;42.652;23.364;2023-07-28T11:19:26;4.15;;;3.20;;
33190;SDS011;19554;42.652;23.364;2023-07-28T11:21:51;4.13;;;3.10;;
33190;SDS011;19554;42.652;23.364;2023-07-28T11:24:18;5.50;;;4.18;;
33190;SDS011;19554;42.652;23.364;2023-07-28T11:26:45;5.53;;;3.13;;
33190;SDS011;19554;42.652;23.364;2023-07-28T11:29:11;5.65;;;2.80;;
33190;SDS011;19554;42.652;23.364;2023-07-28T11:31:37;6.82;;;2.88;;
33190;SDS011;19554;42.652;23.364;2023-07-28T11:34:02;6.10;;;3.22;;
33190;SDS011;19554;42.652;23.364;2023-07-28T11:36:28;4.40;;;3.05;;
33190;SDS011;19554;42.652;23.364;2023-07-28T11:38:55;4.82;;;2.92;;
33190;SDS011;19554;42.652;23.364;2023-07-28T11:41:23;5.18;;;2.92;;
33190;SDS011;19554;42.652;23.364;2023-07-28T11:43:49;7.05;;;3.70;;
33190;SDS011;19554;42.652;23.364;2023-07-28T11:46:34;9.88;;;3.30;;
33190;SDS011;19554;42.652;23.364;2023-07-28T11:51:36;6.43;;;3.03;;
33190;SDS011;19554;42.652;23.364;2023-07-28T11:54:03;3.97;;;2.70;;
33190;SDS011;19554;42.652;23.364;2023-07-28T11:56:29;4.60;;;3.05;;
33190;SDS011;19554;42.652;23.364;2023-07-28T11:58:54;5.93;;;2.90;;
33190;SDS011;19554;42.652;23.364;2023-07-28T12:01:20;9.48;;;2.92;;
33190;SDS011;19554;42.652;23.364;2023-07-28T12:03:45;3.53;;;2.58;;
33190;SDS011;19554;42.652;23.364;2023-07-28T12:06:11;5.93;;;2.92;;
33190;SDS011;19554;42.652;23.364;2023-07-28T12:08:36;5.35;;;3.35;;
33190;SDS011;19554;42.652;23.364;2023-07-28T12:11:02;3.03;;;2.60;;
33190;SDS011;19554;42.652;23.364;2023-07-28T12:13:28;6.93;;;2.78;;
33190;SDS011;19554;42.652;23.364;2023-07-28T12:15:54;4.25;;;2.80;;
33190;SDS011;19554;42.652;23.364;2023-07-28T12:18:19;10.40;;;3.70;;
33190;SDS011;19554;42.652;23.364;2023-07-28T12:20:46;5.18;;;2.50;;
33190;SDS011;19554;42.652;23.364;2023-07-28T12:23:19;8.65;;;4.20;;
33190;SDS011;19554;42.652;23.364;2023-07-28T12:25:46;7.75;;;3.35;;
33190;SDS011;19554;42.652;23.364;2023-07-28T12:28:12;9.68;;;3.03;;
33190;SDS011;19554;42.652;23.364;2023-07-28T12:30:38;5.47;;;3.03;;
33190;SDS011;19554;42.652;23.364;2023-07-28T12:33:04;7.30;;;3.10;;
33190;SDS011;19554;42.652;23.364;2023-07-28T12:35:31;3.42;;;2.53;;
33190;SDS011;19554;42.652;23.364;2023-07-28T12:37:59;6.57;;;2.58;;
33190;SDS011;19554;42.652;23.364;2023-07-28T12:40:32;4.35;;;3.00;;
33190;SDS011;19554;42.652;23.364;2023-07-28T12:42:58;3.28;;;2.33;;
33190;SDS011;19554;42.652;23.364;2023-07-28T12:45:25;5.85;;;2.92;;
33190;SDS011;19554;42.652;23.364;2023-07-28T12:47:54;4.13;;;2.55;;
33190;SDS011;19554;42.652;23.364;2023-07-28T12:50:20;4.50;;;2.65;;
33190;SDS011;19554;42.652;23.364;2023-07-28T12:52:47;4.13;;;2.78;;
33190;SDS011;19554;42.652;23.364;2023-07-28T12:55:13;3.08;;;2.80;;
33190;SDS011;19554;42.652;23.364;2023-07-28T12:57:39;4.82;;;3.05;;
33190;SDS011;19554;42.652;23.364;2023-07-28T13:00:04;15.38;;;4.18;;
33190;SDS011;19554;42.652;23.364;2023-07-28T13:02:40;6.57;;;2.85;;
33190;SDS011;19554;42.652;23.364;2023-07-28T13:05:06;4.60;;;2.65;;
33190;SDS011;19554;42.652;23.364;2023-07-28T13:07:35;4.32;;;3.20;;
33190;SDS011;19554;42.652;23.364;2023-07-28T13:10:05;4.60;;;2.65;;
33190;SDS011;19554;42.652;23.364;2023-07-28T13:12:32;3.40;;;2.30;;
33190;SDS011;19554;42.652;23.364;2023-07-28T13:14:57;3.97;;;2.80;;
33190;SDS011;19554;42.652;23.364;2023-07-28T13:17:23;3.80;;;2.80;;
33190;SDS011;19554;42.652;23.364;2023-07-28T13:19:48;2.92;;;2.60;;
33190;SDS011;19554;42.652;23.364;2023-07-28T13:22:13;3.35;;;2.72;;
33190;SDS011;19554;42.652;23.364;2023-07-28T13:24:39;3.35;;;2.67;;
33190;SDS011;19554;42.652;23.364;2023-07-28T13:27:04;3.10;;;2.80;;
33190;SDS011;19554;42.652;23.364;2023-07-28T13:29:30;3.42;;;3.08;;
33190;SDS011;19554;42.652;23.364;2023-07-28T13:31:59;2.88;;;2.58;;
33190;SDS011;19554;42.652;23.364;2023-07-28T13:34:27;4.65;;;2.88;;
33190;SDS011;19554;42.652;23.364;2023-07-28T13:36:53;4.55;;;2.80;;
33190;SDS011;19554;42.652;23.364;2023-07-28T13:39:20;3.97;;;2.90;;
33190;SDS011;19554;42.652;23.364;2023-07-28T13:41:45;5.32;;;2.80;;
33190;SDS011;19554;42.652;23.364;2023-07-28T13:44:10;2.80;;;2.60;;
33190;SDS011;19554;42.652;23.364;2023-07-28T13:46:36;2.92;;;2.60;;
33190;SDS011;19554;42.652;23.364;2023-07-28T13:49:02;4.57;;;2.58;;
33190;SDS011;19554;42.652;23.364;2023-07-28T13:51:28;2.70;;;2.50;;
33190;SDS011;19554;42.652;23.364;2023-07-28T13:53:54;4.28;;;2.42;;
33190;SDS011;19554;42.652;23.364;2023-07-28T13:56:19;2.85;;;2.55;;
33190;SDS011;19554;42.652;23.364;2023-07-28T13:58:45;3.08;;;2.55;;
33190;SDS011;19554;42.652;23.364;2023-07-28T14:01:10;3.70;;;2.60;;
33190;SDS011;19554;42.652;23.364;2023-07-28T14:03:35;2.83;;;2.33;;
33190;SDS011;19554;42.652;23.364;2023-07-28T14:06:01;5.25;;;2.58;;
33190;SDS011;19554;42.652;23.364;2023-07-28T14:08:26;2.92;;;2.60;;
33190;SDS011;19554;42.652;23.364;2023-07-28T14:10:52;4.75;;;2.50;;
33190;SDS011;19554;42.652;23.364;2023-07-28T14:13:17;5.07;;;3.08;;
33190;SDS011;19554;42.652;23.364;2023-07-28T14:15:43;3.60;;;2.70;;
33190;SDS011;19554;42.652;23.364;2023-07-28T14:18:08;4.40;;;2.40;;
33190;SDS011;19554;42.652;23.364;2023-07-28T14:20:33;3.08;;;2.75;;
33190;SDS011;19554;42.652;23.364;2023-07-28T14:22:59;8.63;;;3.13;;
33190;SDS011;19554;42.652;23.364;2023-07-28T14:25:25;5.05;;;2.50;;
33190;SDS011;19554;42.652;23.364;2023-07-28T14:27:51;4.20;;;2.50;;
33190;SDS011;19554;42.652;23.364;2023-07-28T14:30:16;4.38;;;2.88;;
33190;SDS011;19554;42.652;23.364;2023-07-28T14:32:42;3.00;;;2.70;;
33190;SDS011;19554;42.652;23.364;2023-07-28T14:35:07;3.15;;;2.42;;
33190;SDS011;19554;42.652;23.364;2023-07-28T14:37:33;3.13;;;2.83;;
33190;SDS011;19554;42.652;23.364;2023-07-28T14:39:58;2.80;;;2.60;;
33190;SDS011;19554;42.652;23.364;2023-07-28T14:42:23;3.35;;;2.58;;
33190;SDS011;19554;42.652;23.364;2023-07-28T14:44:49;5.88;;;2.63;;
33190;SDS011;19554;42.652;23.364;2023-07-28T14:47:14;3.28;;;2.92;;
33190;SDS011;19554;42.652;23.364;2023-07-28T14:49:39;4.70;;;2.70;;